Time;durP1;ratioP1;P1;durP2;ratioP2;P2;SDS_P1;SDS_P2;PMS_P1;PMS_P2;Temp;Humidity;BMP_temperature;BMP_pressure;BME280_temperature;BME280_humidity;BME280_pressure;Samples;Min_cycle;Max_cycle;Signal;HPM_P1;HPM_P2
2024/03/18 00:02:57;;;;;;;1.60;1.10;;;;;;;6.01;45.45;99289.85;233727;172;137774;-63
2024/03/18 00:08:00;;;;;;;2.00;1.20;;;;;;;5.99;45.69;99285.19;233862;179;136723;-63
2024/03/18 00:13:03;;;;;;;2.50;1.20;;;;;;;6.02;45.75;99283.66;233755;180;151416;-64
2024/03/18 00:18:07;;;;;;;1.50;0.90;;;;;;;5.99;45.67;99279.52;233569;180;136467;-65
2024/03/18 00:23:10;;;;;;;2.90;1.10;;;;;;;5.90;45.80;99274.92;233770;172;136730;-65
2024/03/18 00:28:14;;;;;;;2.60;1.30;;;;;;;5.85;45.93;99272.64;233827;180;151235;-65
2024/03/18 00:33:17;;;;;;;2.00;1.10;;;;;;;5.79;46.24;99272.70;233870;180;137289;-63
2024/03/18 00:38:21;;;;;;;2.80;1.30;;;;;;;5.77;46.11;99269.62;233883;179;137380;-64
2024/03/18 00:43:24;;;;;;;1.70;1.20;;;;;;;5.77;46.35;99260.84;233761;180;152167;-64
2024/03/18 00:48:27;;;;;;;2.60;1.20;;;;;;;5.76;46.33;99251.55;233703;180;136904;-64
2024/03/18 00:53:30;;;;;;;1.90;1.20;;;;;;;5.70;46.35;99253.33;233539;180;138925;-63
2024/03/18 00:58:34;;;;;;;2.20;1.10;;;;;;;5.70;46.39;99253.16;233502;180;150994;-64
2024/03/18 01:03:37;;;;;;;2.60;1.30;;;;;;;5.70;46.27;99247.19;233845;180;137244;-64
2024/03/18 01:08:40;;;;;;;3.40;1.30;;;;;;;5.59;46.74;99245.32;233907;180;136811;-64
2024/03/18 01:13:47;;;;;;;2.60;1.30;;;;;;;5.56;46.94;99243.30;233816;179;151251;-65
2024/03/18 01:18:50;;;;;;;2.70;1.50;;;;;;;5.53;47.11;99245.20;233691;179;137194;-65
2024/03/18 01:23:54;;;;;;;3.80;1.80;;;;;;;5.55;47.39;99233.86;233478;180;136890;-66
2024/03/18 01:28:57;;;;;;;2.20;1.40;;;;;;;5.58;47.43;99229.54;233640;180;152561;-64
2024/03/18 01:34:03;;;;;;;2.90;1.80;;;;;;;5.52;47.45;99233.13;233803;180;136475;-64
2024/03/18 01:39:07;;;;;;;4.70;2.00;;;;;;;5.49;47.71;99223.21;233838;180;136738;-64
2024/03/18 01:44:10;;;;;;;3.10;1.90;;;;;;;5.46;47.79;99224.52;233317;180;152676;-63
2024/03/18 01:49:13;;;;;;;4.20;1.80;;;;;;;5.49;47.85;99227.42;233832;179;137499;-64
2024/03/18 01:54:17;;;;;;;4.30;1.80;;;;;;;5.44;48.04;99233.73;233740;179;136816;-64
2024/03/18 01:59:21;;;;;;;16.70;7.50;;;;;;;5.43;48.42;99234.84;233780;180;151077;-64
2024/03/18 02:04:24;;;;;;;4.80;2.20;;;;;;;5.44;48.90;99240.09;233746;180;137466;-64
2024/03/18 02:09:29;;;;;;;4.70;2.10;;;;;;;5.37;50.90;99251.77;233852;180;137054;-64
2024/03/18 02:14:32;;;;;;;2.60;1.90;;;;;;;5.27;54.10;99259.21;233822;180;151858;-64
2024/03/18 02:19:34;;;;;;;2.80;2.10;;;;;;;5.14;55.97;99256.16;233775;180;136598;-65
2024/03/18 02:24:37;;;;;;;3.40;1.70;;;;;;;5.02;57.04;99260.11;233836;179;139550;-65
2024/03/18 02:29:41;;;;;;;2.40;2.20;;;;;;;4.90;57.75;99253.87;233821;179;151496;-64
2024/03/18 02:34:44;;;;;;;2.80;2.00;;;;;;;4.83;58.26;99245.84;233761;179;136807;-61
2024/03/18 02:39:47;;;;;;;3.60;2.30;;;;;;;4.78;59.08;99249.02;233910;179;136638;-62
2024/03/18 02:44:50;;;;;;;3.80;2.10;;;;;;;4.74;59.26;99250.72;233774;180;151491;-62
2024/03/18 02:49:53;;;;;;;2.70;2.30;;;;;;;4.71;59.43;99249.08;233844;179;137342;-63
2024/03/18 02:54:56;;;;;;;2.40;2.00;;;;;;;4.69;59.97;99245.62;233737;179;136253;-63
2024/03/18 03:00:00;;;;;;;2.70;2.30;;;;;;;4.69;59.61;99246.18;233827;179;151178;-63
2024/03/18 03:05:04;;;;;;;3.00;2.00;;;;;;;4.69;59.51;99242.65;233660;180;137250;-62
2024/03/18 03:10:07;;;;;;;1.60;1.40;;;;;;;4.71;60.00;99241.85;233904;179;137078;-64
2024/03/18 03:15:11;;;;;;;2.10;1.10;;;;;;;4.69;59.42;99242.46;233906;179;151426;-64
2024/03/18 03:20:18;;;;;;;1.20;0.90;;;;;;;4.68;58.80;99239.34;233813;179;136151;-63
2024/03/18 03:25:21;;;;;;;1.30;0.80;;;;;;;4.70;58.47;99240.67;233801;180;137811;-63
2024/03/18 03:30:24;;;;;;;1.60;0.90;;;;;;;4.67;58.16;99243.95;233783;180;151919;-63
2024/03/18 03:35:27;;;;;;;1.00;0.90;;;;;;;4.63;57.98;99249.16;233781;180;136673;-62
2024/03/18 03:40:31;;;;;;;1.30;0.70;;;;;;;4.49;58.46;99250.69;233893;179;136557;-64
2024/03/18 03:45:34;;;;;;;1.20;0.80;;;;;;;4.48;58.27;99247.22;233830;179;152859;-64
2024/03/18 03:50:37;;;;;;;0.90;0.60;;;;;;;4.45;57.23;99243.63;233798;179;137292;-64
2024/03/18 03:55:40;;;;;;;2.80;0.70;;;;;;;4.31;56.60;99240.06;233886;179;136215;-63
2024/03/18 04:00:45;;;;;;;3.10;0.70;;;;;;;4.19;57.15;99233.10;233853;179;151631;-64
2024/03/18 04:05:48;;;;;;;1.30;0.70;;;;;;;4.10;57.21;99238.84;233668;179;136164;-64
2024/03/18 04:10:51;;;;;;;0.60;0.60;;;;;;;4.07;57.38;99243.33;233764;179;137514;-63
2024/03/18 04:15:54;;;;;;;1.50;0.70;;;;;;;4.05;57.06;99238.83;233754;180;151476;-66
2024/03/18 04:20:59;;;;;;;1.20;0.90;;;;;;;4.04;57.18;99240.44;233667;180;138730;-64
2024/03/18 04:26:06;;;;;;;1.40;0.80;;;;;;;3.98;57.16;99248.35;233729;180;136707;-63
2024/03/18 04:31:11;;;;;;;2.70;0.70;;;;;;;3.99;57.20;99247.27;233816;179;154540;-62
2024/03/18 04:36:15;;;;;;;1.20;1.10;;;;;;;4.05;57.02;99249.71;233741;180;139212;-62
2024/03/18 04:41:18;;;;;;;2.50;1.10;;;;;;;4.10;56.94;99249.19;233395;179;138658;-63
2024/03/18 04:46:21;;;;;;;2.10;1.20;;;;;;;4.13;56.96;99249.11;233825;180;152958;-62
2024/03/18 04:51:24;;;;;;;2.30;1.70;;;;;;;4.13;57.08;99248.73;233726;180;137428;-62
2024/03/18 04:56:29;;;;;;;2.90;1.90;;;;;;;4.13;57.08;99247.36;233836;180;137312;-62
2024/03/18 05:01:32;;;;;;;3.00;2.00;;;;;;;4.16;57.02;99247.77;233853;179;154223;-61
2024/03/18 05:06:35;;;;;;;4.20;1.80;;;;;;;4.16;57.06;99248.66;233822;180;137977;-63
2024/03/18 05:11:38;;;;;;;4.20;1.60;;;;;;;4.15;57.05;99250.44;233604;180;137802;-62
2024/03/18 05:16:41;;;;;;;2.80;1.70;;;;;;;4.21;57.00;99257.61;233710;180;153745;-62
2024/03/18 05:21:44;;;;;;;2.90;1.70;;;;;;;4.23;56.78;99255.96;233864;180;137217;-62
2024/03/18 05:26:47;;;;;;;3.10;1.60;;;;;;;4.20;56.64;99252.58;233818;179;137113;-63
2024/03/18 05:31:50;;;;;;;2.60;1.90;;;;;;;4.23;56.50;99255.63;233681;180;152873;-63
2024/03/18 05:36:53;;;;;;;4.40;1.90;;;;;;;4.22;56.37;99259.00;233661;180;140140;-62
2024/03/18 05:41:56;;;;;;;4.50;2.60;;;;;;;4.26;56.27;99261.15;233667;180;138469;-62
2024/03/18 05:47:00;;;;;;;3.20;2.50;;;;;;;4.31;56.07;99259.40;233871;179;153410;-64
2024/03/18 05:52:03;;;;;;;77.70;57.00;;;;;;;4.36;58.10;99260.82;233754;180;137269;-61
2024/03/18 05:57:07;;;;;;;13.60;8.40;;;;;;;4.49;56.64;99263.02;233810;180;139209;-63
2024/03/18 06:02:10;;;;;;;24.70;15.30;;;;;;;4.49;56.51;99264.23;233720;180;152898;-61
2024/03/18 06:07:21;;;;;;;6.60;4.10;;;;;;;4.59;56.00;99267.79;233808;179;137113;-57
2024/03/18 06:12:27;;;;;;;3.50;2.90;;;;;;;4.58;57.11;99268.85;233812;180;137742;-62
2024/03/18 06:17:30;;;;;;;5.00;3.20;;;;;;;4.54;55.44;99267.41;233616;179;153788;-61
2024/03/18 06:22:39;;;;;;;4.90;3.20;;;;;;;4.56;55.83;99266.30;233696;180;137976;-59
2024/03/18 06:27:41;;;;;;;3.80;3.00;;;;;;;4.58;56.10;99267.25;233796;179;137661;-64
2024/03/18 06:32:44;;;;;;;7.10;2.80;;;;;;;4.61;55.56;99272.78;233712;180;154297;-62
2024/03/18 06:37:47;;;;;;;5.70;2.90;;;;;;;4.63;55.63;99274.66;233294;180;138650;-62
2024/03/18 06:42:52;;;;;;;6.00;3.30;;;;;;;4.59;55.16;99274.79;233805;179;137833;-62
2024/03/18 06:47:55;;;;;;;4.30;2.80;;;;;;;4.67;55.00;99267.30;233824;179;152984;-62
2024/03/18 06:52:58;;;;;;;5.00;2.90;;;;;;;4.83;55.18;99267.46;233719;180;137644;-61
2024/03/18 06:58:03;;;;;;;3.50;2.50;;;;;;;4.88;55.38;99272.90;233794;179;137725;-63
2024/03/18 07:03:06;;;;;;;4.90;2.50;;;;;;;4.88;55.57;99267.27;233777;180;154132;-66
2024/03/18 07:08:09;;;;;;;3.30;2.00;;;;;;;4.90;54.94;99266.31;233736;180;138078;-64
2024/03/18 07:13:12;;;;;;;5.60;2.30;;;;;;;4.93;53.01;99270.47;233793;179;137155;-64
2024/03/18 07:18:15;;;;;;;3.40;2.00;;;;;;;4.89;52.66;99267.79;233767;179;153393;-64
2024/03/18 07:23:20;;;;;;;3.10;2.20;;;;;;;4.78;51.31;99272.71;232702;179;138719;-64
2024/03/18 07:28:23;;;;;;;8.80;2.20;;;;;;;4.78;51.87;99276.08;233721;179;138517;-64
2024/03/18 07:33:27;;;;;;;2.50;1.60;;;;;;;4.86;51.22;99278.45;233705;179;153851;-64
2024/03/18 07:38:31;;;;;;;50.90;36.30;;;;;;;4.97;50.62;99275.08;233774;179;137568;-65
2024/03/18 07:43:34;;;;;;;5.60;2.70;;;;;;;5.18;49.71;99272.37;233630;179;138241;-65
2024/03/18 07:48:37;;;;;;;7.60;3.10;;;;;;;5.22;49.90;99276.44;233297;179;154366;-64
2024/03/18 07:53:41;;;;;;;4.40;1.70;;;;;;;5.25;49.34;99281.64;233722;179;137475;-63
2024/03/18 07:58:44;;;;;;;5.30;1.70;;;;;;;5.31;49.45;99284.73;233670;179;138071;-63
2024/03/18 08:03:47;;;;;;;5.20;1.80;;;;;;;5.37;49.75;99286.46;233747;167;154212;-65
2024/03/18 08:08:50;;;;;;;3.00;1.50;;;;;;;5.43;49.50;99288.67;233715;179;137279;-62
2024/03/18 08:13:52;;;;;;;132.10;88.40;;;;;;;5.47;48.99;99282.73;233751;180;137118;-63
2024/03/18 08:18:55;;;;;;;16.00;5.80;;;;;;;5.54;50.33;99286.70;233741;180;153070;-61
2024/03/18 08:23:58;;;;;;;5.20;2.20;;;;;;;5.58;48.82;99284.09;233773;180;137369;-61
2024/03/18 08:29:02;;;;;;;3.70;1.80;;;;;;;5.51;48.07;99280.29;233829;180;137031;-60
2024/03/18 08:34:05;;;;;;;9.60;1.60;;;;;;;5.53;48.36;99275.12;233844;180;154541;-58
2024/03/18 08:39:09;;;;;;;2.40;1.50;;;;;;;5.55;47.10;99278.92;233719;180;137898;-60
2024/03/18 08:44:12;;;;;;;3.70;1.50;;;;;;;5.53;46.77;99275.64;233724;179;137035;-61
2024/03/18 08:49:19;;;;;;;4.90;1.40;;;;;;;5.64;47.68;99270.15;233713;180;153786;-61
2024/03/18 08:54:22;;;;;;;7.30;2.20;;;;;;;5.74;47.94;99267.45;233456;179;139341;-62
2024/03/18 08:59:26;;;;;;;5.30;2.10;;;;;;;5.78;46.81;99271.34;233631;179;138271;-61
2024/03/18 09:04:30;;;;;;;2.90;1.60;;;;;;;5.82;47.37;99264.14;233656;180;153215;-61
2024/03/18 09:09:33;;;;;;;89.50;58.10;;;;;;;5.89;48.13;99263.52;233723;176;137460;-60
2024/03/18 09:14:36;;;;;;;5.50;2.90;;;;;;;5.99;48.36;99264.23;233764;180;137386;-61
2024/03/18 09:19:42;;;;;;;2.90;1.80;;;;;;;6.03;47.72;99263.73;233850;179;153977;-61
2024/03/18 09:24:45;;;;;;;;;;;;;;;6.06;48.41;99258.81;233682;180;138323;-61
2024/03/18 09:29:49;;;;;;;4.70;2.90;;;;;;;6.11;48.40;99261.27;233834;180;137078;-60
2024/03/18 09:34:52;;;;;;;6.40;4.10;;;;;;;6.03;48.21;99263.52;233746;180;153303;-61
2024/03/18 09:39:56;;;;;;;6.80;3.50;;;;;;;6.05;49.52;99257.84;233658;180;138153;-60
2024/03/18 09:45:01;;;;;;;7.50;2.40;;;;;;;5.94;47.83;99254.72;233865;179;137667;-60
2024/03/18 09:50:04;;;;;;;4.30;2.30;;;;;;;5.91;48.65;99253.73;233777;179;154515;-60
2024/03/18 09:55:24;;;;;;;9.00;4.40;;;;;;;5.94;48.27;99253.34;233569;180;137762;-61
2024/03/18 10:00:27;;;;;;;29.00;18.80;;;;;;;5.99;49.50;99251.02;233728;179;137850;-61
2024/03/18 10:05:32;;;;;;;5.70;2.80;;;;;;;6.02;49.29;99247.55;233722;180;154259;-60
2024/03/18 10:10:35;;;;;;;6.60;2.30;;;;;;;6.00;49.07;99244.29;233790;179;137822;-61
2024/03/18 10:15:41;;;;;;;3.60;2.30;;;;;;;5.97;49.29;99241.42;233422;179;138619;-61
2024/03/18 10:20:45;;;;;;;3.80;2.50;;;;;;;5.96;49.34;99243.38;233702;179;153749;-61
2024/03/18 10:25:48;;;;;;;7.20;2.80;;;;;;;5.92;48.63;99243.86;233562;179;138031;-60
2024/03/18 10:30:52;;;;;;;4.90;2.30;;;;;;;5.95;48.11;99241.48;233258;179;138700;-60
2024/03/18 10:35:57;;;;;;;4.30;2.70;;;;;;;5.95;47.30;99234.27;233683;180;153384;-60
2024/03/18 10:41:02;;;;;;;;;;;;;;;5.95;47.24;99236.38;233559;179;138717;-60
2024/03/18 10:46:05;;;;;;;5.80;2.90;;;;;;;5.91;47.13;99236.88;233664;180;138621;-59
2024/03/18 10:51:11;;;;;;;3.90;2.40;;;;;;;5.94;46.70;99237.31;233784;180;152917;-59
2024/03/18 10:56:14;;;;;;;5.10;2.70;;;;;;;5.90;46.23;99230.04;233790;180;136765;-59
2024/03/18 11:01:18;;;;;;;4.00;2.50;;;;;;;5.79;46.00;99228.71;233744;180;137069;-60
2024/03/18 11:06:21;;;;;;;4.70;2.70;;;;;;;5.74;46.45;99223.95;233705;180;154012;-60
2024/03/18 11:11:24;;;;;;;3.40;2.50;;;;;;;5.86;46.30;99219.08;233714;180;139711;-59
2024/03/18 11:16:31;;;;;;;4.30;2.50;;;;;;;5.95;46.26;99209.80;233782;179;138405;-59
2024/03/18 11:21:34;;;;;;;3.60;2.40;;;;;;;5.99;45.84;99204.52;233791;180;153906;-60
2024/03/18 11:26:40;;;;;;;4.00;2.80;;;;;;;6.01;45.85;99207.06;233724;180;137788;-61
2024/03/18 11:31:47;;;;;;;;;;;;;;;6.05;45.64;99204.27;233550;179;138165;-61
2024/03/18 11:36:50;;;;;;;5.50;2.80;;;;;;;6.05;45.41;99200.93;233777;179;153306;-59
2024/03/18 11:42:04;;;;;;;4.50;2.50;;;;;;;6.00;45.42;99200.95;233700;179;138103;-60
2024/03/18 11:47:08;;;;;;;6.90;3.10;;;;;;;5.96;45.70;99192.14;233706;179;138617;-61
2024/03/18 11:52:13;;;;;;;3.90;2.40;;;;;;;6.02;45.21;99189.60;233671;179;153808;-59
2024/03/18 11:57:16;;;;;;;5.60;3.50;;;;;;;5.94;45.15;99181.47;233767;179;137254;-61
2024/03/18 12:02:19;;;;;;;5.10;3.40;;;;;;;5.97;46.17;99179.95;233704;179;137680;-60
2024/03/18 12:07:23;;;;;;;43.40;26.80;;;;;;;6.15;46.24;99180.61;233692;179;153932;-60
2024/03/18 12:12:26;;;;;;;5.60;4.00;;;;;;;6.35;46.36;99176.05;233607;179;137658;-60
2024/03/18 12:17:31;;;;;;;5.70;3.60;;;;;;;6.44;45.15;99169.89;233680;180;137469;-58
2024/03/18 12:22:34;;;;;;;5.00;2.90;;;;;;;6.48;45.30;99163.73;233658;180;152949;-61
2024/03/18 12:33:05;;;;;;;5.00;2.70;;;;;;;6.76;44.21;99158.23;233757;180;137203;-61
2024/03/18 12:38:10;;;;;;;6.90;2.80;;;;;;;6.68;43.65;99153.48;233683;179;154271;-59
2024/03/18 12:43:13;;;;;;;4.30;2.80;;;;;;;6.66;43.74;99152.34;233635;179;138091;-61
2024/03/18 12:48:17;;;;;;;4.90;2.90;;;;;;;6.65;43.58;99151.48;233701;180;137965;-62
2024/03/18 12:53:19;;;;;;;4.30;2.50;;;;;;;6.56;43.63;99150.66;233755;180;153107;-61
2024/03/18 12:58:22;;;;;;;4.20;2.60;;;;;;;6.54;43.63;99152.31;233665;179;137508;-61
2024/03/18 13:03:26;;;;;;;3.30;2.40;;;;;;;6.52;43.10;99148.58;233712;180;159069;-61
2024/03/18 13:08:29;;;;;;;6.10;2.40;;;;;;;6.49;43.36;99149.73;233778;179;153304;-61
2024/03/18 13:13:35;;;;;;;65.50;40.90;;;;;;;6.54;44.03;99143.88;233625;179;137657;-60
2024/03/18 13:18:41;;;;;;;5.90;3.90;;;;;;;6.62;43.68;99145.98;233787;179;138316;-59
2024/03/18 13:23:44;;;;;;;4.30;2.80;;;;;;;6.58;43.34;99143.52;233124;179;153214;-61
2024/03/18 13:28:49;;;;;;;2.80;2.40;;;;;;;6.54;43.61;99144.23;233679;180;137786;-62
2024/03/18 13:33:52;;;;;;;5.70;2.60;;;;;;;6.46;43.40;99144.60;233763;179;137237;-62
2024/03/18 13:38:55;;;;;;;5.80;3.20;;;;;;;6.40;43.72;99142.02;233633;180;153211;-62
2024/03/18 13:43:58;;;;;;;4.10;3.40;;;;;;;6.49;43.60;99141.09;233720;180;138027;-63
2024/03/18 13:49:04;;;;;;;4.70;3.50;;;;;;;6.56;43.66;99140.08;233794;179;137754;-64
2024/03/18 13:54:08;;;;;;;5.10;3.20;;;;;;;6.60;43.66;99137.79;233743;179;154094;-64
2024/03/18 13:59:11;;;;;;;4.30;3.00;;;;;;;6.51;43.65;99138.88;233595;180;137480;-63
2024/03/18 14:04:14;;;;;;;4.30;2.90;;;;;;;6.45;43.68;99136.89;233757;180;137707;-62
2024/03/18 14:09:21;;;;;;;121.00;87.50;;;;;;;6.37;43.96;99136.67;233691;180;154744;-61
2024/03/18 14:14:32;;;;;;;7.70;5.50;;;;;;;6.55;46.04;99132.21;233655;180;138239;-63
2024/03/18 14:19:36;;;;;;;8.30;4.10;;;;;;;6.68;44.05;99133.23;233808;180;138137;-62
2024/03/18 14:24:44;;;;;;;4.90;2.90;;;;;;;6.65;44.06;99135.27;233682;180;154249;-63
2024/03/18 14:29:46;;;;;;;6.60;3.40;;;;;;;6.45;43.62;99134.94;233720;172;137319;-62
2024/03/18 14:34:49;;;;;;;3.80;2.50;;;;;;;6.50;43.64;99138.44;233634;180;137034;-63
2024/03/18 14:39:53;;;;;;;3.90;2.50;;;;;;;6.49;43.95;99138.30;233752;179;153052;-63
2024/03/18 14:44:56;;;;;;;5.40;3.30;;;;;;;6.48;43.99;99134.45;233552;180;138072;-63
2024/03/18 14:49:59;;;;;;;3.40;2.70;;;;;;;6.44;43.86;99136.76;233650;177;137312;-61
2024/03/18 14:55:02;;;;;;;7.00;3.10;;;;;;;6.42;44.03;99138.61;233739;179;153167;-61
2024/03/18 15:00:09;;;;;;;6.30;3.50;;;;;;;6.37;44.07;99139.30;233562;179;137837;-61
2024/03/18 15:05:12;;;;;;;11.10;7.00;;;;;;;6.31;45.21;99149.98;233711;179;138754;-62
2024/03/18 15:10:15;;;;;;;5.80;3.40;;;;;;;6.31;45.53;99153.34;233691;180;153960;-63
2024/03/18 15:15:18;;;;;;;6.70;3.40;;;;;;;6.30;46.03;99153.57;233735;179;137238;-62
2024/03/18 15:20:21;;;;;;;5.60;3.70;;;;;;;6.22;46.60;99154.06;233700;179;137909;-62
2024/03/18 15:30:47;;;;;;;9.50;6.90;;;;;;;6.24;49.73;99155.73;233726;179;137777;-61
2024/03/18 15:35:50;;;;;;;15.20;10.50;;;;;;;6.24;48.53;99162.79;233655;168;141663;-63
2024/03/18 15:40:52;;;;;;;10.90;4.60;;;;;;;6.08;49.18;99161.34;233664;179;153358;-62
2024/03/18 15:45:55;;;;;;;5.60;3.70;;;;;;;6.02;49.89;99165.83;233650;179;138837;-63
2024/03/18 15:50:58;;;;;;;8.00;4.10;;;;;;;5.85;50.48;99171.42;233688;179;137383;-62
2024/03/18 15:56:04;;;;;;;11.40;4.40;;;;;;;5.78;50.82;99175.05;233389;179;155724;-63
2024/03/18 16:01:07;;;;;;;13.00;4.90;;;;;;;5.72;51.17;99180.38;233670;179;137928;-62
2024/03/18 16:06:16;;;;;;;8.40;4.80;;;;;;;5.63;51.52;99187.44;233647;179;139010;-62
2024/03/18 16:11:34;;;;;;;6.60;4.50;;;;;;;5.67;51.88;99185.88;233730;179;154055;-60
2024/03/18 16:16:37;;;;;;;5.50;4.20;;;;;;;5.76;52.06;99180.95;233804;179;138600;-59
2024/03/18 16:21:40;;;;;;;7.80;4.90;;;;;;;5.78;52.17;99180.89;233745;179;137191;-59
2024/03/18 16:26:43;;;;;;;12.70;4.60;;;;;;;5.76;52.06;99186.92;233603;180;153626;-60
2024/03/18 16:31:48;;;;;;;6.30;4.50;;;;;;;5.68;52.32;99191.45;233738;180;138205;-58
2024/03/18 16:36:50;;;;;;;8.30;5.20;;;;;;;5.64;52.59;99201.84;233588;180;138607;-62
2024/03/18 16:41:53;;;;;;;10.40;6.90;;;;;;;5.70;54.15;99202.65;233661;180;155147;-61
2024/03/18 16:46:56;;;;;;;7.60;5.30;;;;;;;5.77;53.43;99211.34;233624;180;137508;-60
2024/03/18 16:51:59;;;;;;;7.50;4.90;;;;;;;5.69;53.65;99212.20;233684;180;137465;-61
2024/03/18 16:57:03;;;;;;;8.20;5.10;;;;;;;5.57;53.88;99217.42;233683;179;153426;-61
2024/03/18 17:02:08;;;;;;;8.10;5.10;;;;;;;5.50;53.76;99218.92;233588;180;153123;-61
2024/03/18 17:07:11;;;;;;;8.20;4.70;;;;;;;5.51;53.78;99222.41;233726;168;137366;-60
2024/03/18 17:12:14;;;;;;;9.00;5.40;;;;;;;5.49;53.83;99218.98;233672;180;152997;-62
2024/03/18 17:17:18;;;;;;;10.10;5.10;;;;;;;5.47;53.84;99223.96;233764;180;137357;-60
2024/03/18 17:22:21;;;;;;;13.60;5.30;;;;;;;5.49;53.80;99224.75;233693;180;137621;-59
2024/03/18 17:27:24;;;;;;;70.30;51.80;;;;;;;5.49;54.11;99225.31;233718;179;153182;-59
2024/03/18 17:32:27;;;;;;;12.00;7.70;;;;;;;5.60;55.62;99224.86;233726;180;137922;-59
2024/03/18 17:37:31;;;;;;;10.00;6.10;;;;;;;5.61;53.91;99225.72;233766;168;137220;-59
2024/03/18 17:42:37;;;;;;;7.70;5.80;;;;;;;5.59;54.01;99231.79;233771;179;153221;-59
2024/03/18 17:47:41;;;;;;;11.90;6.50;;;;;;;5.57;54.11;99232.19;233769;180;137917;-59
2024/03/18 17:52:44;;;;;;;14.40;8.20;;;;;;;5.59;54.19;99238.65;233772;179;137272;-58
2024/03/18 17:57:47;;;;;;;13.80;7.40;;;;;;;5.59;54.28;99241.98;233554;179;153679;-59
2024/03/18 18:02:50;;;;;;;12.70;7.30;;;;;;;5.62;54.04;99248.91;233726;179;138126;-59
2024/03/18 18:07:54;;;;;;;11.20;7.70;;;;;;;5.61;53.90;99251.23;233785;179;137858;-57
2024/03/18 18:12:56;;;;;;;13.10;8.10;;;;;;;5.62;54.18;99257.51;233650;180;154109;-59
2024/03/18 18:18:00;;;;;;;14.70;10.10;;;;;;;5.64;54.26;99258.69;233664;180;138164;-59
2024/03/18 18:23:03;;;;;;;12.80;8.40;;;;;;;5.66;54.46;99261.44;233685;169;138394;-59
2024/03/18 18:28:08;;;;;;;14.90;8.40;;;;;;;5.68;54.27;99265.23;233713;173;153936;-59
2024/03/18 18:33:11;;;;;;;14.00;9.00;;;;;;;5.69;54.37;99266.39;233585;175;140225;-58
2024/03/18 18:38:14;;;;;;;15.10;8.50;;;;;;;5.70;54.88;99265.48;233767;180;137235;-59
2024/03/18 18:43:17;;;;;;;12.20;7.20;;;;;;;5.71;55.04;99273.21;233655;179;154160;-58
2024/03/18 18:48:20;;;;;;;12.70;8.50;;;;;;;5.70;54.66;99272.52;233582;180;138414;-58
2024/03/18 18:53:23;;;;;;;11.10;9.10;;;;;;;5.74;54.54;99277.68;233779;179;138220;-58
2024/03/18 18:58:27;;;;;;;99.70;57.20;;;;;;;5.86;55.93;99275.10;233687;180;153753;-57
2024/03/18 19:03:30;;;;;;;19.80;11.70;;;;;;;6.02;55.01;99275.38;233711;180;138462;-58
2024/03/18 19:08:33;;;;;;;17.00;9.00;;;;;;;5.96;54.15;99268.04;233763;180;137732;-59
2024/03/18 19:13:36;;;;;;;14.90;8.90;;;;;;;5.90;54.11;99268.92;233670;179;152208;-58
2024/03/18 19:18:39;;;;;;;11.20;8.60;;;;;;;5.89;54.58;99269.14;233316;179;138277;-59
2024/03/18 19:23:43;;;;;;;15.30;8.80;;;;;;;5.86;54.76;99269.42;233752;179;138793;-58
2024/03/18 19:28:49;;;;;;;12.40;8.80;;;;;;;5.85;54.81;99272.64;233543;179;153936;-58
2024/03/18 19:33:54;;;;;;;13.20;9.60;;;;;;;5.85;55.07;99274.44;233584;179;137305;-60
2024/03/18 19:38:58;;;;;;;266.20;181.60;;;;;;;5.85;54.84;99276.34;232841;177;138152;-59
2024/03/18 19:44:01;;;;;;;29.70;19.50;;;;;;;5.96;56.75;99275.94;233582;179;153276;-61
2024/03/18 19:49:04;;;;;;;17.60;10.90;;;;;;;5.94;54.89;99278.33;233700;179;140465;-60
2024/03/18 19:54:07;;;;;;;16.80;10.40;;;;;;;5.89;55.17;99280.06;233610;179;137719;-61
2024/03/18 19:59:10;;;;;;;13.10;8.80;;;;;;;5.85;55.46;99284.29;233616;172;153932;-59
2024/03/18 20:04:13;;;;;;;12.10;8.40;;;;;;;5.83;55.61;99283.66;233551;180;247262;-61
2024/03/18 20:09:16;;;;;;;11.40;8.70;;;;;;;5.81;55.85;99286.72;233660;168;138176;-59
2024/03/18 20:14:19;;;;;;;12.00;7.70;;;;;;;5.81;55.97;99292.20;233698;179;154085;-60
2024/03/18 20:19:22;;;;;;;12.00;7.90;;;;;;;5.78;56.28;99295.48;233593;180;140434;-60
2024/03/18 20:24:25;;;;;;;13.50;8.70;;;;;;;5.76;56.34;99295.92;233723;180;137521;-59
2024/03/18 20:29:28;;;;;;;12.60;7.70;;;;;;;5.76;56.24;99293.97;233618;180;153291;-59
2024/03/18 20:34:31;;;;;;;11.20;7.10;;;;;;;5.76;56.56;99291.50;233662;180;137711;-60
2024/03/18 20:39:34;;;;;;;15.20;6.90;;;;;;;5.74;56.40;99289.82;233696;180;137645;-59
2024/03/18 20:44:37;;;;;;;9.00;5.70;;;;;;;5.71;56.47;99293.24;233776;180;152894;-60
2024/03/18 20:49:40;;;;;;;8.00;5.60;;;;;;;5.71;56.72;99293.62;233748;180;138661;-57
2024/03/18 20:54:44;;;;;;;10.60;6.50;;;;;;;5.68;56.63;99296.39;233770;180;138398;-60
2024/03/18 20:59:47;;;;;;;8.10;5.90;;;;;;;5.66;56.99;99297.48;233743;172;152937;-60
2024/03/18 21:04:51;;;;;;;13.70;6.10;;;;;;;5.65;57.24;99299.47;233184;180;138660;-61
2024/03/18 21:09:54;;;;;;;8.60;6.00;;;;;;;5.70;57.32;99300.18;233621;180;137842;-59
2024/03/18 21:14:57;;;;;;;14.90;5.90;;;;;;;5.71;57.36;99297.13;233692;179;154086;-61
2024/03/18 21:20:00;;;;;;;20.60;14.30;;;;;;;5.76;58.24;99299.05;233347;180;139627;-62
2024/03/18 21:25:08;;;;;;;11.50;7.20;;;;;;;5.85;57.78;99298.52;233753;180;138263;-60
2024/03/18 21:30:12;;;;;;;12.20;8.40;;;;;;;5.81;57.57;99298.67;233077;179;153679;-59
2024/03/18 21:35:15;;;;;;;17.10;8.60;;;;;;;5.66;57.51;99295.22;233750;180;137695;-60
2024/03/18 21:40:19;;;;;;;14.20;8.40;;;;;;;5.70;58.01;99297.19;233727;180;138183;-60
2024/03/18 21:45:22;;;;;;;14.90;7.70;;;;;;;5.75;58.32;99298.23;233778;180;154352;-58
2024/03/18 21:50:25;;;;;;;13.00;7.50;;;;;;;5.74;57.88;99298.81;233626;180;138597;-59
2024/03/18 21:55:28;;;;;;;12.80;7.30;;;;;;;5.78;58.25;99297.76;233732;179;137742;-60
2024/03/18 22:00:31;;;;;;;11.80;6.40;;;;;;;5.81;58.49;99292.34;233684;180;153657;-59
2024/03/18 22:05:34;;;;;;;9.10;5.80;;;;;;;5.84;58.30;99292.44;233708;180;137620;-59
2024/03/18 22:10:38;;;;;;;10.70;6.50;;;;;;;5.80;58.37;99299.25;233755;180;138320;-64
2024/03/18 22:15:40;;;;;;;10.90;6.60;;;;;;;5.77;58.44;99304.34;233573;180;152884;-60
2024/03/18 22:20:47;;;;;;;11.40;7.10;;;;;;;5.70;58.44;99306.84;233732;172;139136;-60
2024/03/18 22:25:50;;;;;;;15.50;7.80;;;;;;;5.62;58.51;99309.11;233688;180;137151;-59
2024/03/18 22:30:57;;;;;;;10.80;7.80;;;;;;;5.60;58.66;99310.40;233722;179;153084;-60
2024/03/18 22:36:03;;;;;;;11.90;8.20;;;;;;;5.61;59.00;99311.24;233742;176;137648;-59
2024/03/18 22:41:10;;;;;;;13.00;8.20;;;;;;;5.57;59.37;99308.40;233487;169;138515;-59
2024/03/18 22:46:13;;;;;;;12.30;8.40;;;;;;;5.54;59.38;99308.88;233606;179;153980;-60
2024/03/18 22:51:16;;;;;;;14.90;8.60;;;;;;;5.50;59.12;99304.28;233711;180;138574;-59
2024/03/18 22:56:20;;;;;;;13.10;8.70;;;;;;;5.50;59.42;99301.80;233642;179;139235;-62
2024/03/18 23:01:23;;;;;;;15.60;8.40;;;;;;;5.47;59.57;99304.40;233728;179;153272;-61
2024/03/18 23:06:26;;;;;;;12.00;7.60;;;;;;;5.41;59.80;99307.05;233668;180;137598;-61
2024/03/18 23:11:29;;;;;;;13.10;8.00;;;;;;;5.36;59.90;99307.59;233702;179;137582;-61
2024/03/18 23:16:32;;;;;;;11.80;7.90;;;;;;;5.33;59.92;99314.73;233689;180;153152;-57
2024/03/18 23:21:36;;;;;;;11.00;8.50;;;;;;;5.30;59.91;99311.34;233657;179;137894;-59
2024/03/18 23:26:39;;;;;;;14.90;8.60;;;;;;;5.32;59.90;99311.44;233388;179;138669;-59
2024/03/18 23:31:42;;;;;;;10.60;7.40;;;;;;;5.29;60.00;99316.45;233655;180;152990;-59
2024/03/18 23:36:45;;;;;;;10.90;8.30;;;;;;;5.25;59.92;99317.33;233644;176;137465;-59
2024/03/18 23:41:48;;;;;;;11.50;7.70;;;;;;;5.20;60.09;99318.17;233715;179;138790;-59
2024/03/18 23:46:57;;;;;;;14.50;8.50;;;;;;;5.12;60.00;99317.41;233676;180;152190;-59
2024/03/18 23:52:00;;;;;;;11.30;8.10;;;;;;;5.12;60.29;99319.52;233609;179;137451;-59
2024/03/18 23:57:03;;;;;;;13.20;9.00;;;;;;;5.10;60.23;99321.55;233752;179;138173;-59
